Flight Track Log - Related Links

Times and Time Zones

All times are in EDT time to prevent confusion due to time zone crossing. See the OPT332 flight status page for this flight to view local times or setup timezone preferences in your user account.

Time Position Orientation Groundspeed Altitude Reporting Facility
EDT Latitude Longitude Course Direction KTS MPH feet Rate Location/Type
Sat 07:09:16 AM 31.5428 -84.2917 292° West 326 375 5,300  Level Jacksonville Center
Sat 07:10:16 AM 31.5692 -84.3703 292° West 290 334 8,600 3,150 Climbing Jacksonville Center
Sat 07:11:16 AM 31.5975 -84.4486 293° West 269 310 11,600 3,000 Climbing Jacksonville Center
Sat 07:12:16 AM 31.6236 -84.5272 291° West 264 304 14,600 2,800 Climbing Jacksonville Center
Sat 07:13:16 AM 31.6517 -84.6108 292° West 269 310 17,200 2,400 Climbing Jacksonville Center
Sat 07:14:16 AM 31.6819 -84.6942 293° West 269 310 19,400 1,893 Climbing Jacksonville Center
Sat 07:15:45 AM 31.7294 -84.8347 292° West 296 341 21,900 1,611 Climbing Atlanta Center
Sat 07:16:45 AM 31.7600 -84.9281 291° West 301 346 23,400 1,150 Climbing Atlanta Center
Sat 07:17:45 AM 31.7928 -85.0211 293° West 306 352 24,200 900 Climbing Atlanta Center
Sat 07:18:45 AM 31.8253 -85.1217 291° West 313 360 25,200 1,150 Climbing Atlanta Center
Sat 07:19:45 AM 31.8558 -85.2100 292° West 318 366 26,500 1,150 Climbing Atlanta Center
Sat 07:20:45 AM 31.8903 -85.3108 292° West 331 381 27,500 1,200 Climbing Atlanta Center
Sat 07:21:45 AM 31.9247 -85.4164 291° West 336 387 28,900 1,400 Climbing Atlanta Center
Sat 07:22:45 AM 31.9611 -85.5200 293° West 342 394 30,300 1,550 Climbing Atlanta Center
Sat 07:23:45 AM 31.9953 -85.6233 291° West 342 394 32,000 850 Climbing Atlanta Center
Sat 07:24:45 AM 32.0292 -85.7342 290° West 349 402 32,000  Level Atlanta Center
Sat 07:25:45 AM 32.0925 -85.8481 303° West 368 423 32,000 500 Level Atlanta Center
Sat 07:26:45 AM 32.1747 -85.9283 320° Northwest 374 430 33,000 1,450 Climbing Atlanta Center
Sat 07:27:45 AM 32.2572 -85.9914 327° Northwest 367 422 34,900 1,600 Climbing Atlanta Center
Sat 07:28:45 AM 32.3081 -86.0786 305° West 351 404 36,200 1,050 Climbing Atlanta Center
Sat 07:29:45 AM 32.3378 -86.1678 292° West 333 383 37,000 900 Climbing Atlanta Center
Sat 07:30:45 AM 32.3653 -86.2692 288° West 321 369 38,000 1,000 Climbing Atlanta Center
Sat 07:31:45 AM 32.3967 -86.3658 291° West 321 369 39,000 1,000 Climbing Atlanta Center
Sat 07:32:45 AM 32.4322 -86.4703 292° West 330 380 40,000 1,000 Climbing Atlanta Center
Sat 07:33:45 AM 32.4575 -86.5619 288° West 329 379 41,000 1,000 Climbing Atlanta Center
Sat 07:34:45 AM 32.4869 -86.6614 289° West 317 365 42,000 950 Climbing Atlanta Center
Sat 07:35:45 AM 32.5117 -86.7631 286° West 304 350 42,900 800 Climbing Atlanta Center
Sat 07:36:45 AM 32.5369 -86.8575 288° West 304 350 43,600 700 Climbing Atlanta Center
Sat 07:37:45 AM 32.5639 -86.9494 289° West 304 350 44,300 700 Climbing Atlanta Center
Sat 07:38:45 AM 32.5931 -87.0417 291° West 304 350 45,000 350 Climbing Atlanta Center
Sat 07:39:45 AM 32.6200 -87.1339 289° West 304 350 45,000  Level Atlanta Center
Sat 07:40:45 AM 32.6467 -87.2308 288° West 311 358 45,000  Level Atlanta Center
Sat 07:41:45 AM 32.6756 -87.3283 289° West 311 358 45,000  Level Atlanta Center
Sat 07:42:45 AM 32.7042 -87.4281 289° West 316 364 45,000  Level Atlanta Center
Sat 07:44:51 AM 32.7569 -87.6425 286° West 317 365 45,000  Level Memphis Center
Sat 07:45:51 AM 32.7864 -87.7453 289° West 323 372 45,000  Level Memphis Center
Sat 07:46:51 AM 32.8136 -87.8458 288° West 323 372 45,000  Level Memphis Center
Sat 07:47:51 AM 32.8489 -87.9486 292° West 323 372 45,000  Level Memphis Center
Sat 07:48:51 AM 32.8781 -88.0519 289° West 323 372 45,000  Level Memphis Center
Sat 07:49:51 AM 32.9050 -88.1550 287° West 323 372 45,000  Level Memphis Center
Sat 07:50:51 AM 32.9339 -88.2583 288° West 323 372 45,000  Level Memphis Center
Sat 07:51:51 AM 32.9606 -88.3642 287° West 323 372 45,000  Level Memphis Center
Sat 07:52:51 AM 32.9894 -88.4700 288° West 328 377 45,000  Level Memphis Center
Sat 07:53:51 AM 33.0181 -88.5733 288° West 328 377 45,000  Level Memphis Center
Sat 07:54:51 AM 33.0489 -88.6794 289° West 333 383 45,000  Level Memphis Center
Sat 07:55:51 AM 33.0961 -88.7753 300° West 338 389 45,000  Level Memphis Center
Sat 07:56:51 AM 33.1431 -88.8761 299° West 338 389 45,000  Level Memphis Center
Sat 07:57:51 AM 33.1903 -88.9719 301° West 343 395 45,000  Level Memphis Center
Sat 07:58:51 AM 33.2350 -89.0733 298° West 343 395 45,000  Level Memphis Center
Sat 07:59:51 AM 33.2842 -89.1719 301° West 343 395 45,000  Level Memphis Center
Sat 08:00:51 AM 33.3267 -89.2608 300° West 343 395 45,000  Level Memphis Center
Sat 08:01:51 AM 33.3733 -89.3597 299° West 343 395 45,000  Level Memphis Center
Sat 08:02:51 AM 33.4222 -89.4586 301° West 343 395 45,000  Level Memphis Center
Sat 08:03:51 AM 33.4667 -89.5603 298° West 343 395 45,000  Level Memphis Center
Sat 08:04:51 AM 33.5133 -89.6594 299° West 343 395 45,000  Level Memphis Center
Sat 08:05:51 AM 33.5597 -89.7614 299° West 343 395 45,000  Level Memphis Center
Sat 08:06:51 AM 33.6081 -89.8633 300° West 348 400 45,000  Level Memphis Center
Sat 08:07:51 AM 33.6544 -89.9628 299° West 348 400 45,000  Level Memphis Center
Sat 08:08:51 AM 33.7006 -90.0625 299° West 343 395 45,000  Level Memphis Center
Sat 08:09:51 AM 33.7467 -90.1647 299° West 343 395 45,000  Level Memphis Center
Sat 08:10:51 AM 33.7992 -90.2772 299° West 348 400 45,000  Level Memphis Center
Sat 08:11:51 AM 33.8431 -90.3772 298° West 341 392 45,000  Level Memphis Center
Sat 08:12:51 AM 33.8889 -90.4797 298° West 348 400 45,000  Level Memphis Center
Sat 08:13:51 AM 33.9367 -90.5850 299° West 343 395 45,000  Level Memphis Center
Sat 08:14:51 AM 33.9803 -90.6828 298° West 345 397 45,000  Level Memphis Center
Sat 08:15:51 AM 34.0258 -90.7858 298° West 351 404 45,000  Level Memphis Center
Sat 08:16:51 AM 34.0736 -90.8864 300° West 351 404 45,000  Level Memphis Center
Sat 08:17:51 AM 34.1231 -90.9894 300° West 346 398 45,000  Level Memphis Center
Sat 08:18:51 AM 34.1686 -91.0928 298° West 346 398 45,000  Level Memphis Center
Sat 08:19:51 AM 34.2075 -91.1861 297° West 346 398 45,000  Level Memphis Center
Sat 08:20:51 AM 34.2547 -91.2894 299° West 354 407 45,000  Level Memphis Center
Sat 08:21:51 AM 34.3019 -91.3931 299° West 354 407 45,000  Level Memphis Center
Sat 08:22:51 AM 34.3469 -91.4942 298° West 348 400 45,000  Level Memphis Center
Sat 08:23:51 AM 34.3942 -91.6006 298° West 348 400 45,000  Level Memphis Center
Sat 08:24:51 AM 34.4389 -91.7044 298° West 348 400 45,000  Level Memphis Center
Sat 08:25:51 AM 34.4897 -91.8136 299° West 339 390 45,000  Level Memphis Center
Sat 08:26:51 AM 34.5344 -91.9203 297° West 344 396 45,000  Level Memphis Center
Sat 08:27:51 AM 34.5811 -92.0244 299° West 349 402 45,000  Level Memphis Center
Sat 08:28:51 AM 34.6278 -92.1289 299° West 349 402 45,000  Level Memphis Center
Sat 08:29:51 AM 34.6742 -92.2333 298° West 349 402 45,000  Level Memphis Center
Sat 08:30:51 AM 34.7183 -92.3431 296° West 349 402 45,000  Level Memphis Center
Sat 08:31:51 AM 34.7667 -92.4453 300° West 349 402 45,000  Level Memphis Center
Sat 08:32:51 AM 34.8064 -92.5575 293° West 349 402 45,000  Level Memphis Center
Sat 08:33:51 AM 34.8547 -92.6575 301° West 349 402 45,000  Level Memphis Center
Sat 08:34:51 AM 34.9028 -92.7650 299° West 349 402 45,000  Level Memphis Center
Sat 08:35:51 AM 34.9467 -92.8703 297° West 349 402 45,000  Level Memphis Center
Sat 08:36:51 AM 34.9925 -92.9781 297° West 349 402 45,000  Level Memphis Center
Sat 08:37:51 AM 35.0381 -93.0861 297° West 349 402 45,000  Level Memphis Center
Sat 08:38:51 AM 35.0836 -93.1942 297° West 349 402 45,000  Level Memphis Center
Sat 08:39:51 AM 35.1331 -93.3075 298° West 356 410 45,000  Level Memphis Center
Sat 08:40:51 AM 35.1764 -93.4156 296° West 361 415 45,000  Level Memphis Center
Sat 08:41:51 AM 35.2158 -93.5111 297° West 361 415 45,000  Level Memphis Center
Sat 08:42:51 AM 35.2631 -93.6222 298° West 361 415 45,000  Level Memphis Center
Sat 08:43:51 AM 35.3100 -93.7336 297° West 367 422 45,000  Level Memphis Center
Sat 08:44:51 AM 35.3531 -93.8422 296° West 372 428 45,000  Level Memphis Center
Sat 08:45:51 AM 35.4000 -93.9511 298° West 366 421 45,000  Level Memphis Center
Sat 08:46:51 AM 35.4447 -94.0625 296° West 366 421 45,000  Level Memphis Center
Sat 08:47:51 AM 35.4933 -94.1744 298° West 372 428 45,000  Level Memphis Center
Sat 08:48:51 AM 35.5381 -94.2861 296° West 372 428 45,000  Level Memphis Center
Sat 08:49:51 AM 35.5881 -94.4136 296° West 372 428 45,000  Level Memphis Center
Sat 08:50:51 AM 35.6303 -94.5256 295° West 372 428 45,000  Level Memphis Center
Sat 08:51:51 AM 35.6786 -94.6353 298° West 372 428 45,000  Level Memphis Center
Sat 08:52:51 AM 35.7225 -94.7500 295° West 372 428 45,000  Level Memphis Center
Sat 08:53:51 AM 35.7686 -94.8625 297° West 372 428 45,000  Level Memphis Center
Sat 08:54:41 AM 35.8067 -94.9492 298° West 372 428 45,000  Level Kansas City Center
Sat 08:55:43 AM 35.8525 -95.0647 296° West 372 428 45,000  Level Kansas City Center
Sat 08:56:42 AM 35.8992 -95.1781 297° West 370 426 45,000  Level Kansas City Center
Sat 08:57:45 AM 35.9453 -95.2956 296° West 375 432 45,000  Level Kansas City Center
Sat 08:58:44 AM 35.9919 -95.4133 296° West 378 435 45,000  Level Kansas City Center
Sat 08:59:48 AM 36.0375 -95.5314 296° West 379 436 45,000  Level Kansas City Center
Sat 09:00:48 AM 36.0806 -95.6392 296° West 380 437 45,000  Level Kansas City Center
Sat 09:01:49 AM 36.1314 -95.7711 296° West 384 442 45,000  Level Kansas City Center
Sat 09:02:50 AM 36.1789 -95.8911 296° West 384 442 45,000  Level Kansas City Center
Sat 09:03:52 AM 36.2261 -96.0122 296° West 387 445 45,000  Level Kansas City Center
Sat 09:04:53 AM 36.2736 -96.1336 296° West 389 448 45,000  Level Kansas City Center
Sat 09:05:53 AM 36.3206 -96.2556 296° West 390 449 45,000  Level Kansas City Center
Sat 09:06:55 AM 36.3681 -96.3764 296° West 388 447 45,000  Level Kansas City Center
Sat 09:07:54 AM 36.4133 -96.4981 295° West 388 447 45,000  Level Kansas City Center
Sat 09:08:58 AM 36.4603 -96.6200 296° West 389 448 45,000  Level Kansas City Center
Sat 09:09:59 AM 36.5153 -96.7656 295° West 388 447 45,000  Level Kansas City Center
Sat 09:11:00 AM 36.5622 -96.8883 295° West 389 448 45,000  Level Kansas City Center
Sat 09:11:59 AM 36.6078 -97.0108 295° West 389 448 45,000  Level Kansas City Center
Sat 09:13:02 AM 36.6547 -97.1336 296° West 393 452 45,000  Level Kansas City Center
Sat 09:14:04 AM 36.7006 -97.2592 295° West 398 458 45,000  Level Kansas City Center
Sat 09:15:04 AM 36.7456 -97.3825 295° West 396 456 45,000  Level Kansas City Center
Sat 09:16:04 AM 36.7883 -97.4969 295° West 392 451 45,000  Level Kansas City Center
Sat 09:17:07 AM 36.8342 -97.6200 295° West 390 449 45,000  Level Kansas City Center
Sat 09:18:08 AM 36.8797 -97.7425 295° West 390 449 45,000  Level Kansas City Center
Sat 09:19:09 AM 36.9339 -97.8928 294° West 392 451 45,000  Level Kansas City Center
Sat 09:20:11 AM 36.9794 -98.0164 295° West 392 451 45,000  Level Kansas City Center
Sat 09:21:10 AM 37.0236 -98.1394 294° West 390 449 45,000  Level Kansas City Center
Sat 09:22:11 AM 37.0683 -98.2619 295° West 388 447 45,000  Level Kansas City Center
Sat 09:23:14 AM 37.1128 -98.3861 294° West 388 447 45,000  Level Kansas City Center
Sat 09:24:16 AM 37.1572 -98.5103 294° West 388 447 45,000  Level Kansas City Center
Sat 09:25:16 AM 37.2003 -98.6333 294° West 386 444 45,000  Level Kansas City Center
Sat 09:26:18 AM 37.2444 -98.7586 294° West 389 448 45,000  Level Kansas City Center
Sat 09:27:17 AM 37.2886 -98.8828 294° West 389 448 45,000  Level Kansas City Center
Sat 09:28:20 AM 37.3325 -99.0072 294° West 389 448 45,000  Level Kansas City Center
Sat 09:29:22 AM 37.3761 -99.1317 294° West 388 447 45,000  Level Kansas City Center
Sat 09:30:23 AM 37.4194 -99.2561 294° West 388 447 45,000  Level Kansas City Center
Sat 09:31:23 AM 37.4650 -99.3817 295° West 391 450 45,000  Level Kansas City Center
Sat 09:32:23 AM 37.5117 -99.5244 292° West 385 443 45,000  Level Kansas City Center
Sat 09:33:26 AM 37.5531 -99.6436 294° West 386 444 45,000  Level Kansas City Center
Sat 09:34:27 AM 37.6014 -99.7825 294° West 388 447 45,000  Level Kansas City Center
Sat 09:35:27 AM 37.6419 -99.9014 293° West 387 445 45,000  Level Kansas City Center
Sat 09:36:31 AM 37.6892 -100.0406 293° West 386 444 45,000  Level Kansas City Center
Sat 09:37:32 AM 37.7297 -100.1600 293° West 387 445 45,000  Level Kansas City Center
Sat 09:38:33 AM 37.7694 -100.2769 293° West 383 441 45,000  Level Kansas City Center
Sat 09:39:34 AM 37.8169 -100.4156 293° West 384 442 45,000  Level Kansas City Center
Sat 09:40:34 AM 37.8572 -100.5344 293° West 386 444 45,000  Level Kansas City Center
Sat 09:41:35 AM 37.9031 -100.6722 293° West 385 443 45,000  Level Kansas City Center
Sat 09:42:39 AM 37.9428 -100.7914 293° West 386 444 45,000  Level Kansas City Center
Sat 09:44:42 AM 38.0247 -101.0497 292° West 385 443 45,000  Level Kansas City Center
Sat 09:45:42 AM 38.0700 -101.1892 292° West 385 443 45,000  Level Kansas City Center
Sat 09:46:44 AM 38.1231 -101.2969 302° West 382 440 45,000  Level Kansas City Center
Sat 09:47:46 AM 38.1814 -101.4011 305° West 380 437 45,000  Level Kansas City Center
Sat 09:48:46 AM 38.2519 -101.5208 307° West 379 436 45,000  Level Kansas City Center
Sat 09:49:46 AM 38.3117 -101.6242 306° West 379 436 45,000  Level Kansas City Center
Sat 09:50:50 AM 38.3803 -101.7450 306° West 378 435 45,000  Level Kansas City Center
Sat 09:52:09 AM 38.4583 -101.8833 306° West 377 434 45,000  Level Denver Center
Sat 09:53:10 AM 38.5183 -101.9883 306° West 381 438 45,000  Level Denver Center
Sat 09:54:11 AM 38.5875 -102.1089 306° West 378 435 45,000  Level Denver Center
Sat 09:55:12 AM 38.6464 -102.2128 306° West 377 434 45,000  Level Denver Center
Sat 09:56:14 AM 38.7133 -102.3350 305° West 377 434 45,000  Level Denver Center
Sat 09:57:15 AM 38.7744 -102.4408 307° West 384 442 45,000  Level Denver Center
Sat 09:58:16 AM 38.8333 -102.5450 306° West 380 437 45,000  Level Denver Center
Sat 09:59:17 AM 38.9017 -102.6667 306° West 377 434 45,000  Level Denver Center
Sat 10:00:18 AM 38.9603 -102.7742 305° West 383 441 45,000 -98 Level Denver Center
Sat 10:01:19 AM 39.0219 -102.8844 306° West 381 438 44,800 -878 Descending Denver Center
Sat 10:02:21 AM 39.0856 -103.0008 305° West 395 455 43,200 -1,561 Descending Denver Center
Sat 10:03:22 AM 39.1508 -103.1186 306° West 405 466 41,600 -1,574 Descending Denver Center
Sat 10:04:23 AM 39.2164 -103.2361 306° West 405 466 40,000 -1,672 Descending Denver Center
Sat 10:05:24 AM 39.2925 -103.3778 305° West 400 460 38,200 -984 Descending Denver Center
Sat 10:06:25 AM 39.3575 -103.4975 305° West 406 467 38,000 -98 Descending Denver Center
Sat 10:07:27 AM 39.4228 -103.6167 305° West 409 471 38,000  Level Denver Center
Sat 10:08:28 AM 39.4889 -103.7378 305° West 412 474 38,000  Level Denver Center
Sat 10:09:29 AM 39.5544 -103.8600 305° West 413 475 38,000  Level Denver Center
Sat 10:10:31 AM 39.6186 -103.9797 305° West 405 466 38,000  Level Denver Center
Sat 10:11:32 AM 39.6833 -104.1022 304° West 411 473 38,000  Level Denver Center
Sat 10:12:33 AM 39.7483 -104.2225 305° West 409 471 38,000  Level Denver Center
Sat 10:13:34 AM 39.8264 -104.3678 305° West 413 475 38,000  Level Denver Center
Sat 10:14:36 AM 39.8925 -104.4903 305° West 422 486 38,000 -634 Level Denver Center
Sat 10:15:37 AM 39.9553 -104.6119 304° West 408 470 36,700 -1,556 Descending Denver Center
Sat 10:16:51 AM 40.0158 -104.7367 302° West 418 481 34,500 -2,178 Descending Denver Center
Sat 10:17:52 AM 40.0325 -104.9136 277° West 414 476 31,800 -2,195 Descending Denver Center
Sat 10:18:54 AM 40.0317 -105.0675 270° West 426 490 30,000 -1,659 Descending Denver Center
Sat 10:19:55 AM 40.0281 -105.2500 269° West 424 488 28,400 -1,463 Descending Denver Center
Sat 10:20:57 AM 40.0253 -105.4044 269° West 427 491 27,000 -1,561 Descending Denver Center
Sat 10:21:58 AM 40.0225 -105.5603 269° West 431 496 25,200 -1,756 Descending Denver Center
Sat 10:23:00 AM 40.0217 -105.7167 270° West 432 497 23,400 -1,512 Descending Denver Center
Sat 10:24:01 AM 40.0164 -105.8608 267° West 394 453 22,100 -1,366 Descending Denver Center
Sat 10:25:03 AM 40.0128 -106.0056 268° West 398 458 20,600 -1,452 Descending Denver Center
Sat 10:26:05 AM 39.9706 -106.1297 246° West 386 444 19,100 -1,561 Descending Denver Center
Sat 10:27:06 AM 39.9136 -106.2583 240° Southwest 378 435 17,400 -1,756 Descending Denver Center
Sat 10:28:08 AM 39.8694 -106.3575 240° Southwest 334 384 15,500 -1,500 Descending Denver Center
Sat 10:29:22 AM 39.8325 -106.4383 239° Southwest 293 337 14,000 -1,022 Descending Denver Center
Sat 10:30:23 AM 39.7953 -106.5017 233° Southwest 250 288 13,200 -780 Descending Denver Center
Sat 10:31:25 AM 39.7583 -106.5692 235° Southwest 174 200 12,400 -629 Descending Denver Center
Sat 10:32:27 AM 39.7350 -106.6097 233° Southwest 140 161 11,900 -629 Descending Denver Center
Sat 10:33:29 AM 39.7097 -106.6519 232° Southwest 145 167 11,100 -780 Descending Denver Center
Sat 10:34:30 AM 39.6833 -106.6964 232° Southwest 152 175 10,300 -732 Descending Denver Center
Sat 10:35:32 AM 39.6644 -106.7442 243° Southwest 149 171 9,600 -823 Descending Denver Center
Sat 10:36:34 AM 39.6556 -106.7975 258° West 150 173 8,600 -1,113 Descending Denver Center
Sat 10:37:36 AM 39.6489 -106.8567 262° West 144 166 7,300 -976 Descending Denver Center
Sat 10:38:37 AM 39.6450 -106.8939 262° West 138 159 6,600 -689 Descending Denver Center

Login

Don't have an account? Register now (free) for customized features, flight alerts, and more!